Re: [Sky Soaring] Re: [Sky Soaring] Re: [Sky Soaring] New topic: Monday Oct 29 perfect weather

Welcome to Sky Soaring Forums General Discussion Monday Oct 29 perfect weather Re: [Sky Soaring] Re: [Sky Soaring] Re: [Sky Soaring] New topic: Monday Oct 29 perfect weather

#4839
Don GrilloDon Grillo
Keymaster

Rockford wx calling for 5000 AGL scattered clouds.  Lets
Fly. There will be lift where the sun hits the ground. Could be
a good day for xcountry.

Calling all tow pilots.  


KRFD 291120Z 2912/3012 27006KT P6SM SCT050

Forecast
period:
1200 to 2200 UTC 29 October 2018
Forecast
type:
FROM: standard forecast or significant
change
Winds: from the W (270 degrees) at 7 MPH (6 knots;
3.1 m/s)
Visibility: 6 or more miles 10+ km)
Ceiling: at least 12,000 feet AGL
Clouds: scattered clouds at 5000 feet AGL
Weather: no significant weather forecast for this
period